Time;durP1;ratioP1;P1;durP2;ratioP2;P2;SDS_P1;SDS_P2;PMS_P1;PMS_P2;Temp;Humidity;BMP_temperature;BMP_pressure;BME280_temperature;BME280_humidity;BME280_pressure;Samples;Min_cycle;Max_cycle;Signal;HPM_P1;HPM_P2
2023/01/24 00:01:49;;;;;;;31.92;16.02;;;1.60;99.90;;;;;;4977611;28;20438;-73
2023/01/24 00:04:14;;;;;;;28.48;14.85;;;1.50;99.90;;;;;;4976361;28;20022;-74
2023/01/24 00:06:40;;;;;;;30.20;15.20;;;1.50;99.90;;;;;;4991844;28;20030;-73
2023/01/24 00:09:05;;;;;;;34.35;17.02;;;1.50;99.90;;;;;;4977917;28;20036;-74
2023/01/24 00:11:31;;;;;;;30.63;15.05;;;1.50;99.90;;;;;;4992376;28;20030;-73
2023/01/24 00:13:57;;;;;;;26.52;14.63;;;1.50;99.90;;;;;;4975407;28;20045;-73
2023/01/24 00:16:22;;;;;;;30.70;14.43;;;1.50;99.90;;;;;;4977907;28;20068;-74
2023/01/24 00:18:50;;;;;;;32.70;15.05;;;1.50;99.90;;;;;;4990106;28;20026;-74
2023/01/24 00:21:21;;;;;;;29.60;14.27;;;1.50;99.90;;;;;;4988169;28;20088;-72
2023/01/24 00:23:54;;;;;;;29.85;14.88;;;1.50;99.90;;;;;;4992967;28;20057;-73
2023/01/24 00:26:21;;;;;;;33.75;15.77;;;1.50;99.90;;;;;;4976556;28;20027;-73
2023/01/24 00:28:49;;;;;;;32.53;15.40;;;1.50;99.90;;;;;;4993038;28;20041;-73
2023/01/24 00:31:14;;;;;;;32.08;15.00;;;1.50;99.90;;;;;;4991203;28;20080;-73
2023/01/24 00:33:40;;;;;;;28.65;14.75;;;1.50;99.90;;;;;;4987914;28;20035;-73
2023/01/24 00:36:06;;;;;;;29.75;14.95;;;1.50;99.90;;;;;;4989051;28;20023;-73
2023/01/24 00:38:32;;;;;;;31.02;14.82;;;1.50;99.90;;;;;;4993422;28;20085;-74
2023/01/24 00:40:58;;;;;;;29.90;14.57;;;1.50;99.90;;;;;;4976513;28;20026;-74
2023/01/24 00:43:26;;;;;;;31.30;15.38;;;1.50;99.90;;;;;;4990136;28;20030;-74
2023/01/24 00:45:51;;;;;;;30.33;14.48;;;1.50;99.90;;;;;;4975987;28;20126;-74
2023/01/24 00:48:17;;;;;;;29.25;15.38;;;1.50;99.90;;;;;;4975728;28;20508;-77
2023/01/24 00:50:46;;;;;;;29.27;14.45;;;1.50;99.90;;;;;;4977520;28;21802;-74
2023/01/24 00:53:12;;;;;;;28.98;14.43;;;1.50;99.90;;;;;;4975691;28;20041;-74
2023/01/24 00:55:42;;;;;;;28.45;13.95;;;1.50;99.90;;;;;;4986247;28;20038;-74
2023/01/24 00:58:08;;;;;;;29.67;14.10;;;1.50;99.90;;;;;;4989326;28;20080;-75
2023/01/24 01:00:38;;;;;;;29.77;14.57;;;1.50;99.90;;;;;;4979589;28;20030;-74
2023/01/24 01:03:05;;;;;;;30.85;14.32;;;1.50;99.90;;;;;;4988056;28;20064;-75
2023/01/24 01:05:31;;;;;;;29.70;14.45;;;1.50;99.90;;;;;;4986616;28;20042;-74
2023/01/24 01:08:12;;;;;;;28.23;14.35;;;1.40;99.90;;;;;;4992203;28;20402;-74
2023/01/24 01:10:41;;;;;;;29.33;13.73;;;1.40;99.90;;;;;;4993006;28;20064;-76
2023/01/24 01:13:19;;;;;;;27.67;13.82;;;1.40;99.90;;;;;;4992567;28;20380;-74
2023/01/24 01:15:45;;;;;;;29.33;14.82;;;1.40;99.90;;;;;;4992113;28;20079;-76
2023/01/24 01:18:10;;;;;;;29.27;14.48;;;1.50;99.90;;;;;;4993059;28;20030;-77
2023/01/24 01:20:36;;;;;;;30.10;14.52;;;1.40;99.90;;;;;;4991987;28;20023;-74
2023/01/24 01:23:02;;;;;;;30.98;14.88;;;1.40;99.90;;;;;;4988481;28;20026;-74
2023/01/24 01:25:28;;;;;;;29.15;14.65;;;1.40;99.90;;;;;;4987945;28;20034;-74
2023/01/24 01:27:57;;;;;;;25.40;12.82;;;1.40;99.90;;;;;;4999406;28;20041;-74
2023/01/24 01:30:22;;;;;;;27.75;14.15;;;1.40;99.90;;;;;;4989002;28;20041;-75
2023/01/24 01:32:48;;;;;;;27.33;13.57;;;1.40;99.90;;;;;;4992174;28;20039;-74
2023/01/24 01:35:26;;;;;;;31.92;14.27;;;1.40;99.90;;;;;;4984398;28;20022;-75
2023/01/24 01:37:54;;;;;;;29.27;14.50;;;1.40;99.90;;;;;;4987608;28;20026;-75
2023/01/24 01:40:20;;;;;;;37.80;14.88;;;1.40;99.90;;;;;;4992662;28;20085;-74
2023/01/24 01:42:58;;;;;;;25.98;12.98;;;1.40;99.90;;;;;;4992796;28;20026;-75
2023/01/24 01:45:32;;;;;;;28.15;13.70;;;1.40;99.90;;;;;;4990437;28;20018;-74
2023/01/24 01:48:18;;;;;;;28.38;13.77;;;1.40;99.90;;;;;;4976351;28;20432;-74
2023/01/24 01:50:53;;;;;;;30.17;13.95;;;1.40;99.90;;;;;;4976590;28;20046;-74
2023/01/24 01:53:20;;;;;;;26.75;13.40;;;1.40;99.90;;;;;;4988911;28;20030;-73
2023/01/24 01:55:51;;;;;;;26.58;13.73;;;1.40;99.90;;;;;;4990115;28;20080;-75
2023/01/24 01:58:18;;;;;;;27.65;13.63;;;1.30;99.90;;;;;;4989667;28;20057;-74
2023/01/24 02:00:50;;;;;;;22.95;12.95;;;1.30;99.90;;;;;;4974868;28;20053;-74
2023/01/24 02:06:34;;;;;;;30.55;15.07;;;1.30;99.90;;;;;;4979578;28;20042;-74
2023/01/24 02:09:01;;;;;;;32.03;14.70;;;1.30;99.90;;;;;;4973893;28;20030;-74
2023/01/24 02:11:40;;;;;;;28.92;14.65;;;1.30;99.90;;;;;;4989610;28;20095;-74
2023/01/24 02:16:53;;;;;;;29.67;13.77;;;1.30;99.90;;;;;;4993547;28;20123;-74
2023/01/24 02:19:58;;;;;;;28.30;14.38;;;1.30;99.90;;;;;;4992359;28;20014;-74
2023/01/24 02:22:56;;;;;;;29.67;14.40;;;1.30;99.90;;;;;;4971926;28;20466;-74
2023/01/24 02:25:59;;;;;;;31.15;14.38;;;1.30;99.90;;;;;;4993098;28;20014;-75
2023/01/24 02:28:26;;;;;;;37.20;15.27;;;1.30;99.90;;;;;;4993075;28;20033;-74
2023/01/24 02:30:55;;;;;;;30.42;14.05;;;1.20;99.90;;;;;;4993262;28;20022;-74
2023/01/24 02:33:21;;;;;;;29.67;14.45;;;1.20;99.90;;;;;;4995996;28;20036;-74
2023/01/24 02:35:47;;;;;;;30.00;14.65;;;1.20;99.90;;;;;;4993744;28;20090;-74
2023/01/24 02:38:23;;;;;;;30.95;14.55;;;1.20;99.90;;;;;;4975018;28;20126;-73
2023/01/24 02:41:06;;;;;;;31.48;15.10;;;1.20;99.90;;;;;;4992313;28;20080;-74
2023/01/24 02:43:36;;;;;;;29.73;14.35;;;1.20;99.90;;;;;;4997146;28;20081;-74
2023/01/24 02:46:01;;;;;;;31.45;15.27;;;1.20;99.90;;;;;;4994247;28;20463;-75
2023/01/24 02:48:27;;;;;;;32.97;15.70;;;1.20;99.90;;;;;;4992992;28;20035;-74
2023/01/24 02:53:40;;;;;;;29.48;14.80;;;1.20;99.90;;;;;;4991232;28;20052;-74
2023/01/24 02:58:58;;;;;;;31.92;15.68;;;1.20;99.90;;;;;;4989958;28;20042;-75
2023/01/24 03:01:24;;;;;;;32.15;16.13;;;1.30;99.90;;;;;;4994710;28;20030;-73
2023/01/24 03:03:54;;;;;;;34.60;15.25;;;1.20;99.90;;;;;;4977508;28;20099;-73
2023/01/24 03:06:22;;;;;;;30.90;14.48;;;1.20;99.90;;;;;;4993917;28;20109;-75
2023/01/24 03:08:48;;;;;;;33.75;15.60;;;1.20;99.90;;;;;;4993206;28;20026;-74
2023/01/24 03:11:14;;;;;;;33.08;14.52;;;1.20;99.90;;;;;;4977274;28;20081;-74
2023/01/24 03:36:07;;;;;;;34.67;16.10;;;1.30;99.90;;;;;;4989173;28;20073;-74
2023/01/24 03:41:32;;;;;;;34.05;15.35;;;1.30;99.90;;;;;;5014794;28;20111;-72
2023/01/24 03:44:01;;;;;;;31.27;14.73;;;1.30;99.90;;;;;;5011031;28;20057;-71
2023/01/24 03:46:31;;;;;;;33.85;16.23;;;1.30;99.90;;;;;;4995008;28;20034;-71
2023/01/24 03:48:57;;;;;;;34.15;16.30;;;1.30;99.90;;;;;;4997738;28;20052;-72
2023/01/24 03:54:16;;;;;;;34.00;16.10;;;1.30;99.90;;;;;;5000204;28;20430;-71
2023/01/24 03:56:41;;;;;;;39.17;16.60;;;1.30;99.90;;;;;;5014342;28;20022;-72
2023/01/24 03:59:07;;;;;;;35.65;15.90;;;1.30;99.90;;;;;;5014409;28;20487;-71
2023/01/24 04:01:33;;;;;;;34.55;16.25;;;1.30;99.90;;;;;;5014157;28;20036;-71
2023/01/24 04:03:58;;;;;;;34.80;16.17;;;1.20;99.90;;;;;;4996604;28;20069;-71
2023/01/24 04:06:33;;;;;;;33.47;16.08;;;1.30;99.90;;;;;;5013965;28;20037;-71
2023/01/24 04:08:58;;;;;;;32.72;15.75;;;1.30;99.90;;;;;;5014142;28;20509;-71
2023/01/24 04:11:27;;;;;;;40.28;16.33;;;1.30;99.90;;;;;;5014137;28;20034;-72
2023/01/24 04:13:52;;;;;;;35.38;15.32;;;1.20;99.90;;;;;;5014030;28;20026;-72
2023/01/24 04:16:21;;;;;;;34.08;16.05;;;1.20;99.90;;;;;;5014125;28;20030;-72
2023/01/24 04:18:49;;;;;;;38.75;17.77;;;1.20;99.90;;;;;;5014277;28;20014;-72
2023/01/24 04:21:15;;;;;;;32.00;15.10;;;1.30;99.90;;;;;;5014047;28;20026;-72
2023/01/24 04:23:49;;;;;;;40.38;15.88;;;1.20;99.90;;;;;;4996470;28;20083;-71
2023/01/24 04:26:18;;;;;;;37.13;17.50;;;1.20;99.90;;;;;;5013850;28;20026;-72
2023/01/24 04:28:54;;;;;;;36.58;15.68;;;1.20;99.90;;;;;;5013846;28;20087;-72
2023/01/24 04:31:25;;;;;;;38.15;15.50;;;1.20;99.90;;;;;;4996559;28;20026;-71
2023/01/24 04:33:51;;;;;;;37.42;16.00;;;1.20;99.90;;;;;;5013807;28;20474;-71
2023/01/24 04:36:16;;;;;;;36.80;15.65;;;1.20;99.90;;;;;;4996271;28;20117;-71
2023/01/24 04:38:48;;;;;;;33.63;15.77;;;1.20;99.90;;;;;;4996019;28;20549;-71
2023/01/24 04:41:17;;;;;;;34.25;16.25;;;1.20;99.90;;;;;;5001117;28;20022;-71
2023/01/24 04:43:45;;;;;;;37.35;16.48;;;1.20;99.90;;;;;;4994056;28;20062;-70
2023/01/24 04:46:11;;;;;;;30.40;15.00;;;1.20;99.90;;;;;;4993177;28;20030;-71
2023/01/24 04:48:39;;;;;;;38.30;17.00;;;1.20;99.90;;;;;;4993856;28;20034;-70
2023/01/24 04:51:05;;;;;;;40.30;17.52;;;1.20;99.90;;;;;;4976256;28;20030;-71
2023/01/24 04:53:31;;;;;;;39.72;16.92;;;1.20;99.90;;;;;;4976356;28;20084;-71
2023/01/24 04:56:06;;;;;;;37.63;16.40;;;1.20;99.90;;;;;;4993875;28;20098;-71
2023/01/24 04:58:33;;;;;;;33.00;16.30;;;1.20;99.90;;;;;;4993736;28;20053;-72
2023/01/24 05:01:04;;;;;;;36.15;16.75;;;1.20;99.90;;;;;;4993702;28;20030;-71
2023/01/24 05:03:36;;;;;;;34.55;15.73;;;1.20;99.90;;;;;;4976203;28;20117;-72
2023/01/24 05:06:02;;;;;;;39.90;17.55;;;1.20;99.90;;;;;;4993560;28;20030;-71
2023/01/24 05:08:27;;;;;;;34.58;15.43;;;1.20;99.90;;;;;;4993596;28;20109;-71
2023/01/24 05:10:53;;;;;;;36.60;17.00;;;1.20;99.90;;;;;;4976077;28;20046;-71
2023/01/24 05:13:19;;;;;;;33.72;15.68;;;1.20;99.90;;;;;;4993508;28;20110;-71
2023/01/24 05:15:56;;;;;;;36.40;17.02;;;1.20;99.90;;;;;;4993617;28;20030;-70
2023/01/24 05:18:22;;;;;;;35.80;16.35;;;1.20;99.90;;;;;;4999443;28;20022;-70
2023/01/24 05:20:50;;;;;;;39.75;16.95;;;1.20;99.90;;;;;;5013316;28;20104;-70
2023/01/24 05:23:19;;;;;;;35.97;15.68;;;1.20;99.90;;;;;;4978373;28;20030;-71
2023/01/24 05:26:07;;;;;;;36.40;16.75;;;1.20;99.90;;;;;;4993569;28;20018;-70
2023/01/24 05:28:38;;;;;;;38.08;16.00;;;1.20;99.90;;;;;;4993396;28;20097;-70
2023/01/24 05:31:16;;;;;;;38.13;16.73;;;1.20;99.90;;;;;;4993468;28;20081;-70
2023/01/24 05:33:42;;;;;;;36.97;16.45;;;1.20;99.90;;;;;;4975641;28;20045;-70
2023/01/24 05:36:17;;;;;;;40.35;18.45;;;1.20;99.90;;;;;;4993219;28;20387;-70
2023/01/24 05:38:47;;;;;;;36.17;15.93;;;1.20;99.90;;;;;;4993019;28;20048;-69
2023/01/24 05:41:17;;;;;;;33.55;15.77;;;1.20;99.90;;;;;;4993036;28;20121;-70
2023/01/24 05:43:43;;;;;;;33.35;15.70;;;1.20;99.90;;;;;;4975810;28;20026;-70
2023/01/24 05:46:15;;;;;;;42.95;19.08;;;1.20;99.90;;;;;;4993018;28;20084;-69
2023/01/24 05:48:44;;;;;;;37.50;16.73;;;1.20;99.90;;;;;;4975696;28;20069;-71
2023/01/24 05:51:12;;;;;;;37.45;16.33;;;1.20;99.90;;;;;;4992868;28;20525;-71
2023/01/24 05:53:44;;;;;;;42.95;17.88;;;1.20;99.90;;;;;;4975671;28;20066;-70
2023/01/24 05:56:16;;;;;;;36.13;15.95;;;1.20;99.90;;;;;;4997440;28;20050;-71
2023/01/24 05:58:43;;;;;;;34.60;16.77;;;1.20;99.90;;;;;;5012419;28;20426;-69
2023/01/24 06:01:17;;;;;;;39.03;17.33;;;1.20;99.90;;;;;;5012470;28;20026;-72
2023/01/24 06:03:51;;;;;;;39.47;17.00;;;1.20;99.90;;;;;;5012527;28;20075;-72
2023/01/24 06:06:24;;;;;;;36.97;17.48;;;1.20;99.90;;;;;;5012363;28;20026;-71
2023/01/24 06:08:56;;;;;;;41.70;17.90;;;1.20;99.90;;;;;;5011683;28;20087;-71
2023/01/24 06:11:24;;;;;;;37.72;17.42;;;1.20;99.90;;;;;;5012537;28;20063;-70
2023/01/24 06:13:50;;;;;;;37.10;17.33;;;1.20;99.90;;;;;;5010107;28;20021;-74
2023/01/24 06:16:21;;;;;;;41.17;18.17;;;1.20;99.90;;;;;;4986874;28;20034;-73
2023/01/24 06:18:51;;;;;;;45.70;18.17;;;1.30;99.90;;;;;;4988607;28;20066;-75
2023/01/24 06:21:35;;;;;;;45.67;19.30;;;1.20;99.90;;;;;;4968314;28;20034;-73
2023/01/24 06:24:01;;;;;;;41.00;18.20;;;1.20;99.90;;;;;;4976075;28;20530;-75
2023/01/24 06:26:27;;;;;;;36.55;17.25;;;1.20;99.90;;;;;;4987298;28;20117;-75
2023/01/24 06:28:56;;;;;;;48.38;18.83;;;1.20;99.90;;;;;;4986416;28;20114;-75
2023/01/24 06:31:43;;;;;;;42.72;18.73;;;1.20;99.90;;;;;;4987556;28;20092;-74
2023/01/24 06:34:27;;;;;;;43.08;20.15;;;1.20;99.90;;;;;;4989101;28;20479;-71
2023/01/24 06:37:23;;;;;;;41.88;18.92;;;1.20;99.90;;;;;;4977395;28;20118;-71
2023/01/24 06:39:51;;;;;;;42.58;19.00;;;1.20;99.90;;;;;;5002232;28;20387;-72
2023/01/24 06:42:21;;;;;;;45.45;20.45;;;1.30;99.90;;;;;;5003816;28;20014;-72
2023/01/24 06:44:50;;;;;;;40.95;19.13;;;1.30;99.90;;;;;;4992959;28;20504;-73
2023/01/24 06:47:23;;;;;;;41.05;19.05;;;1.20;99.90;;;;;;5005776;28;20474;-71
2023/01/24 06:49:49;;;;;;;40.95;18.55;;;1.30;99.90;;;;;;5006887;28;20097;-72
2023/01/24 06:52:14;;;;;;;48.45;20.23;;;1.20;99.90;;;;;;4990949;28;20157;-72
2023/01/24 06:54:40;;;;;;;42.92;21.13;;;1.20;99.90;;;;;;4986634;28;20467;-72
2023/01/24 06:57:08;;;;;;;45.15;19.65;;;1.30;99.90;;;;;;4989098;28;20032;-73
2023/01/24 06:59:37;;;;;;;47.50;20.05;;;1.30;99.90;;;;;;4973799;28;20077;-72
2023/01/24 07:02:06;;;;;;;42.95;19.63;;;1.30;99.90;;;;;;4990380;28;20022;-72
2023/01/24 07:04:31;;;;;;;43.35;19.48;;;1.30;99.90;;;;;;4983158;28;20509;-73
2023/01/24 07:06:57;;;;;;;38.72;18.30;;;1.30;99.90;;;;;;4979294;28;20030;-76
2023/01/24 07:09:29;;;;;;;43.22;19.13;;;1.30;99.90;;;;;;4988294;28;20037;-72
2023/01/24 07:11:57;;;;;;;43.35;19.13;;;1.30;99.90;;;;;;4982612;28;20037;-72
2023/01/24 07:14:23;;;;;;;39.95;17.92;;;1.20;99.90;;;;;;4986717;28;20041;-73
2023/01/24 07:16:52;;;;;;;39.03;18.67;;;1.20;99.90;;;;;;4988002;28;20403;-72
2023/01/24 07:19:26;;;;;;;38.92;19.23;;;1.30;99.90;;;;;;4976650;28;20403;-72
2023/01/24 07:21:54;;;;;;;42.15;19.33;;;1.20;99.90;;;;;;4971650;28;20073;-72
2023/01/24 07:24:29;;;;;;;39.88;19.40;;;1.30;99.90;;;;;;4972516;28;20037;-73
2023/01/24 07:26:55;;;;;;;42.30;18.27;;;1.20;99.90;;;;;;4993717;28;20032;-72
2023/01/24 07:29:21;;;;;;;46.13;20.25;;;1.20;99.90;;;;;;5000852;28;20026;-73
2023/01/24 07:31:48;;;;;;;38.45;18.05;;;1.30;99.90;;;;;;4974024;28;20038;-73
2023/01/24 07:34:15;;;;;;;42.42;18.48;;;1.30;99.90;;;;;;4993975;28;20030;-72
2023/01/24 07:36:42;;;;;;;41.03;17.90;;;1.30;99.90;;;;;;4996565;28;20062;-73
2023/01/24 07:39:07;;;;;;;44.20;18.10;;;1.30;99.90;;;;;;4990492;28;20579;-71
2023/01/24 07:41:35;;;;;;;42.92;18.75;;;1.30;99.90;;;;;;4995505;28;20061;-72
2023/01/24 07:44:04;;;;;;;39.95;18.77;;;1.30;99.90;;;;;;4998279;28;20080;-71
2023/01/24 07:46:30;;;;;;;38.30;17.80;;;1.30;99.90;;;;;;5004264;28;20479;-72
2023/01/24 07:48:56;;;;;;;43.92;19.30;;;1.30;99.90;;;;;;5005427;28;20080;-71
2023/01/24 07:51:22;;;;;;;39.50;18.45;;;1.30;99.90;;;;;;5002183;28;20034;-72
2023/01/24 07:53:47;;;;;;;38.80;18.40;;;1.30;99.90;;;;;;4977527;28;20030;-72
2023/01/24 07:56:15;;;;;;;39.53;17.77;;;1.30;99.90;;;;;;4999925;28;20387;-72
2023/01/24 07:58:41;;;;;;;36.78;17.42;;;1.30;99.90;;;;;;5008438;28;20392;-70
2023/01/24 08:01:06;;;;;;;34.15;17.30;;;1.40;99.90;;;;;;5006885;28;20050;-71
2023/01/24 08:03:32;;;;;;;39.90;17.75;;;1.40;99.90;;;;;;5006684;28;20109;-72
2023/01/24 08:05:58;;;;;;;37.15;16.25;;;1.40;99.90;;;;;;4975179;28;20027;-72
2023/01/24 08:08:23;;;;;;;38.20;17.83;;;1.40;99.90;;;;;;4993212;28;20026;-71
2023/01/24 08:10:49;;;;;;;38.25;17.30;;;1.40;99.90;;;;;;4994468;28;20034;-71
2023/01/24 08:13:14;;;;;;;38.08;17.27;;;1.40;99.90;;;;;;4980020;28;20052;-71
2023/01/24 08:15:40;;;;;;;41.00;17.83;;;1.40;99.90;;;;;;4994987;28;20081;-71
2023/01/24 08:18:06;;;;;;;35.08;16.52;;;1.40;99.90;;;;;;4993837;28;20022;-71
2023/01/24 08:20:32;;;;;;;41.58;17.70;;;1.40;99.90;;;;;;4998621;28;20110;-70
2023/01/24 08:23:01;;;;;;;35.80;17.75;;;1.50;99.90;;;;;;5006712;28;20029;-71
2023/01/24 08:25:28;;;;;;;36.17;17.33;;;1.50;99.90;;;;;;4979939;28;20030;-72
2023/01/24 08:27:54;;;;;;;33.95;15.82;;;1.40;99.90;;;;;;4996721;28;20077;-72
2023/01/24 08:30:19;;;;;;;33.53;17.20;;;1.50;99.90;;;;;;4996497;28;20027;-72
2023/01/24 08:32:45;;;;;;;38.45;16.90;;;1.50;99.90;;;;;;5006182;28;20029;-72
2023/01/24 08:35:11;;;;;;;36.30;16.75;;;1.50;99.90;;;;;;5001469;28;20028;-72
2023/01/24 08:37:36;;;;;;;31.83;15.25;;;1.50;99.90;;;;;;4996995;28;20062;-74
2023/01/24 08:40:03;;;;;;;33.45;16.27;;;1.50;99.90;;;;;;4998224;28;20041;-74
2023/01/24 08:42:29;;;;;;;30.48;15.70;;;1.50;99.90;;;;;;4998775;28;20018;-74
2023/01/24 08:44:54;;;;;;;33.63;15.98;;;1.60;99.90;;;;;;4997061;28;20029;-73
2023/01/24 08:47:20;;;;;;;32.53;16.40;;;1.60;99.90;;;;;;4996269;28;20037;-73
2023/01/24 08:49:46;;;;;;;31.55;15.60;;;1.60;99.90;;;;;;5001548;28;20041;-74
2023/01/24 08:52:12;;;;;;;30.60;14.07;;;1.60;99.90;;;;;;5000322;28;20534;-74
2023/01/24 08:54:38;;;;;;;32.42;14.80;;;1.60;99.90;;;;;;5001155;28;20080;-73
2023/01/24 08:57:07;;;;;;;30.27;14.55;;;1.60;99.90;;;;;;4994733;28;20487;-74
2023/01/24 08:59:33;;;;;;;28.60;14.23;;;1.60;99.90;;;;;;4978427;28;20063;-76
2023/01/24 09:01:59;;;;;;;31.60;14.20;;;1.60;99.90;;;;;;4978427;28;20503;-75
2023/01/24 09:04:26;;;;;;;30.48;14.45;;;1.60;99.90;;;;;;4979651;28;20031;-77
2023/01/24 09:06:52;;;;;;;32.90;14.40;;;1.60;99.90;;;;;;4977890;28;20180;-77
2023/01/24 09:09:18;;;;;;;31.35;14.20;;;1.60;99.90;;;;;;4983260;28;21020;-76
2023/01/24 09:11:44;;;;;;;29.05;13.68;;;1.60;99.90;;;;;;5009722;28;20125;-75
2023/01/24 09:14:13;;;;;;;33.90;15.52;;;1.60;99.90;;;;;;5001655;28;20030;-75
2023/01/24 09:16:39;;;;;;;31.25;14.57;;;1.70;99.90;;;;;;4979423;28;20034;-75
2023/01/24 09:19:05;;;;;;;27.52;13.60;;;1.60;99.90;;;;;;4987299;28;20380;-75
2023/01/24 09:21:31;;;;;;;32.92;15.15;;;1.60;99.90;;;;;;4994664;28;20019;-75
2023/01/24 09:23:56;;;;;;;29.77;13.85;;;1.60;99.90;;;;;;4994396;28;20037;-76
2023/01/24 09:26:23;;;;;;;28.10;14.45;;;1.60;99.90;;;;;;4995478;28;20022;-76
2023/01/24 09:28:49;;;;;;;30.77;14.68;;;1.70;99.90;;;;;;4978251;28;20506;-74
2023/01/24 09:31:17;;;;;;;30.40;14.50;;;1.70;99.90;;;;;;4996439;28;20033;-75
2023/01/24 09:33:43;;;;;;;34.10;15.02;;;1.70;99.90;;;;;;4996377;28;20048;-76
2023/01/24 09:36:09;;;;;;;28.90;14.90;;;1.70;99.90;;;;;;4996176;28;20058;-76
2023/01/24 09:38:34;;;;;;;39.15;14.13;;;1.70;99.90;;;;;;4966155;23;20121;-76
2023/01/24 09:41:27;;;;;;;31.17;13.32;;;1.70;99.90;;;;;;4969105;28;20027;-76
2023/01/24 09:44:00;;;;;;;29.13;14.32;;;1.70;99.90;;;;;;4967915;28;20030;-76
2023/01/24 09:46:43;;;;;;;28.50;14.82;;;1.70;99.90;;;;;;4966447;28;20035;-75
2023/01/24 09:49:21;;;;;;;28.00;14.50;;;1.70;99.90;;;;;;4947992;28;20090;-76
2023/01/24 09:51:52;;;;;;;29.63;14.00;;;1.80;99.90;;;;;;4958924;28;20515;-76
2023/01/24 09:54:35;;;;;;;26.10;12.82;;;1.80;99.90;;;;;;4946194;28;20050;-76
2023/01/24 09:57:06;;;;;;;30.90;14.67;;;1.80;99.90;;;;;;4947749;28;20054;-76
2023/01/24 09:59:39;;;;;;;28.60;13.25;;;1.80;99.90;;;;;;4947722;28;20023;-76
2023/01/24 10:02:17;;;;;;;28.83;14.13;;;1.80;99.90;;;;;;4945600;28;20440;-76
2023/01/24 10:04:44;;;;;;;32.33;14.63;;;1.90;99.90;;;;;;4947205;28;20039;-76
2023/01/24 10:07:22;;;;;;;30.75;14.25;;;1.90;99.90;;;;;;4944940;28;20031;-76
2023/01/24 10:10:10;;;;;;;28.67;13.43;;;1.90;99.90;;;;;;4946930;28;20031;-75
2023/01/24 10:13:13;;;;;;;30.77;14.05;;;1.90;99.90;;;;;;4948608;28;20023;-76
2023/01/24 10:15:50;;;;;;;33.50;15.48;;;1.90;99.90;;;;;;4945935;28;20035;-76
2023/01/24 10:18:30;;;;;;;30.48;14.63;;;1.90;99.90;;;;;;4946259;28;20031;-76
2023/01/24 10:21:38;;;;;;;35.58;15.30;;;1.90;99.90;;;;;;4945618;28;20102;-76
2023/01/24 10:24:16;;;;;;;29.08;13.98;;;1.90;99.90;;;;;;4945154;28;20043;-75
2023/01/24 10:26:48;;;;;;;28.65;13.88;;;1.90;99.90;;;;;;4947963;28;20027;-77
2023/01/24 10:29:19;;;;;;;29.98;14.18;;;1.90;99.90;;;;;;4948906;28;20679;-76
2023/01/24 10:32:00;;;;;;;28.95;13.43;;;2.00;99.90;;;;;;4949591;28;20031;-76
2023/01/24 10:34:29;;;;;;;28.38;12.77;;;2.00;99.90;;;;;;4948398;28;20093;-76
2023/01/24 10:37:01;;;;;;;30.25;14.95;;;2.00;99.90;;;;;;4955244;28;20035;-74
2023/01/24 10:39:27;;;;;;;25.05;12.75;;;2.00;99.90;;;;;;4968997;28;20003;-76
2023/01/24 10:41:53;;;;;;;29.08;14.60;;;2.00;99.90;;;;;;4968658;28;20027;-76
2023/01/24 10:44:30;;;;;;;31.35;14.35;;;2.10;99.90;;;;;;4970754;28;20030;-76
2023/01/24 10:47:05;;;;;;;28.23;13.18;;;2.00;99.90;;;;;;4966876;28;20031;-76
2023/01/24 10:49:39;;;;;;;27.58;13.57;;;2.10;99.90;;;;;;4969914;28;20039;-76
2023/01/24 10:52:08;;;;;;;31.75;14.13;;;2.10;99.90;;;;;;4969494;28;20065;-76
2023/01/24 10:54:43;;;;;;;30.10;13.90;;;2.10;99.90;;;;;;4964823;28;20007;-76
2023/01/24 10:57:24;;;;;;;31.00;14.90;;;2.10;99.90;;;;;;4978957;28;20039;-76
2023/01/24 10:59:50;;;;;;;31.52;14.02;;;2.10;99.90;;;;;;4950394;28;20093;-75
2023/01/24 11:02:24;;;;;;;32.60;14.93;;;2.10;99.90;;;;;;4950451;28;20017;-77
2023/01/24 11:05:00;;;;;;;;;;;2.20;99.90;;;;;;4948952;28;20098;-77
2023/01/24 11:07:30;;;;;;;26.52;12.88;;;2.20;99.90;;;;;;4949330;28;19953;-77
2023/01/24 11:09:59;;;;;;;27.88;12.73;;;2.20;99.90;;;;;;4949812;28;20027;-77
2023/01/24 11:12:25;;;;;;;31.70;14.40;;;2.20;99.90;;;;;;4953471;28;20037;-77
2023/01/24 11:14:51;;;;;;;26.20;12.68;;;2.20;99.90;;;;;;4953468;28;20515;-77
2023/01/24 11:17:35;;;;;;;23.58;11.70;;;2.30;99.90;;;;;;4949144;28;20034;-77
2023/01/24 11:20:32;;;;;;;28.17;13.18;;;2.20;99.90;;;;;;4948260;28;20563;-77
2023/01/24 11:23:24;;;;;;;27.13;13.38;;;2.20;99.90;;;;;;4954274;28;20054;-77
2023/01/24 11:26:01;;;;;;;26.50;12.75;;;2.20;99.90;;;;;;4960734;28;20031;-76
2023/01/24 11:28:29;;;;;;;24.02;12.52;;;2.20;99.90;;;;;;4950650;28;20512;-77
2023/01/24 11:30:59;;;;;;;24.63;13.05;;;2.20;99.90;;;;;;4964531;28;20158;-77
2023/01/24 11:33:46;;;;;;;26.63;13.77;;;2.30;99.90;;;;;;4947706;28;20035;-76
2023/01/24 11:36:35;;;;;;;25.85;13.27;;;2.30;99.90;;;;;;4949660;28;20095;-76
2023/01/24 11:39:22;;;;;;;30.27;14.73;;;2.30;99.90;;;;;;4945639;28;20142;-77
2023/01/24 11:41:58;;;;;;;24.73;11.80;;;2.30;99.90;;;;;;4948353;28;20023;-76
2023/01/24 11:44:35;;;;;;;25.40;12.55;;;2.30;99.90;;;;;;4950712;28;20459;-77
2023/01/24 11:47:23;;;;;;;25.52;12.35;;;2.30;99.90;;;;;;4949801;28;20035;-76
2023/01/24 11:50:24;;;;;;;24.30;12.00;;;2.40;99.90;;;;;;4948814;28;20074;-76
2023/01/24 11:53:09;;;;;;;27.60;13.18;;;2.40;99.90;;;;;;4952256;28;20039;-77
2023/01/24 11:56:20;;;;;;;25.17;13.50;;;2.40;99.90;;;;;;4947214;28;20094;-75
2023/01/24 11:58:49;;;;;;;23.27;12.15;;;2.40;99.90;;;;;;4950676;28;20026;-75
2023/01/24 12:01:52;;;;;;;22.98;11.07;;;2.40;99.90;;;;;;4951270;28;20023;-75
2023/01/24 12:04:59;;;;;;;25.25;12.65;;;2.40;99.90;;;;;;4943494;28;20034;-76
2023/01/24 12:07:37;;;;;;;26.50;12.27;;;2.40;99.90;;;;;;4947180;28;20078;-77
2023/01/24 12:10:05;;;;;;;24.55;12.55;;;2.40;99.90;;;;;;4954759;28;20118;-78
2023/01/24 12:12:37;;;;;;;25.02;11.77;;;2.40;99.90;;;;;;4949081;28;20043;-76
2023/01/24 12:15:08;;;;;;;23.40;11.00;;;2.40;99.90;;;;;;4952765;28;20027;-77
2023/01/24 12:18:05;;;;;;;25.98;12.48;;;2.40;99.90;;;;;;4954677;28;20027;-76
2023/01/24 12:20:46;;;;;;;24.02;12.13;;;2.50;99.90;;;;;;4955116;28;20051;-77
2023/01/24 12:23:20;;;;;;;27.05;12.68;;;2.40;99.90;;;;;;4952846;28;20540;-74
2023/01/24 12:25:48;;;;;;;22.63;11.20;;;2.40;99.90;;;;;;4956845;28;20480;-75
2023/01/24 12:28:38;;;;;;;23.15;12.80;;;2.50;99.90;;;;;;4973766;28;20042;-74
2023/01/24 12:31:06;;;;;;;25.52;11.77;;;2.50;99.90;;;;;;4962082;28;20086;-76
2023/01/24 12:33:34;;;;;;;20.75;12.25;;;2.50;99.90;;;;;;4962225;28;20464;-75
2023/01/24 12:36:22;;;;;;;24.27;12.18;;;2.50;99.90;;;;;;4957923;28;20048;-75
2023/01/24 12:38:55;;;;;;;22.55;11.88;;;2.50;99.90;;;;;;4955487;28;20054;-75
2023/01/24 12:41:35;;;;;;;22.48;11.50;;;2.50;99.90;;;;;;4948444;28;20032;-75
2023/01/24 12:44:22;;;;;;;23.58;11.02;;;2.50;99.90;;;;;;4944447;28;20023;-76
2023/01/24 12:47:12;;;;;;;20.17;10.38;;;2.50;99.90;;;;;;4950964;28;20031;-76
2023/01/24 12:49:52;;;;;;;26.13;12.30;;;2.50;99.90;;;;;;4946442;28;20035;-76
2023/01/24 12:52:27;;;;;;;21.67;10.57;;;2.50;99.90;;;;;;4944354;28;20031;-75
2023/01/24 12:55:11;;;;;;;23.17;11.55;;;2.50;99.90;;;;;;4963191;28;20031;-76
2023/01/24 12:57:40;;;;;;;;;;;2.50;99.90;;;;;;4952544;28;20500;-76
2023/01/24 13:00:18;;;;;;;20.17;10.75;;;2.50;99.90;;;;;;4949201;28;19924;-76
2023/01/24 13:03:24;;;;;;;22.75;11.20;;;2.50;99.90;;;;;;4948680;28;20031;-77
2023/01/24 13:06:11;;;;;;;24.75;11.57;;;2.50;99.90;;;;;;4950462;28;20027;-76
2023/01/24 13:08:56;;;;;;;28.15;12.23;;;2.50;99.90;;;;;;4948156;28;20027;-76
2023/01/24 13:11:25;;;;;;;24.00;11.45;;;2.50;99.90;;;;;;4950465;28;20027;-75
2023/01/24 13:13:54;;;;;;;25.33;12.23;;;2.50;99.90;;;;;;4949831;28;20030;-76
2023/01/24 13:16:49;;;;;;;26.42;11.63;;;2.50;99.90;;;;;;4942124;28;20027;-76
2023/01/24 13:19:41;;;;;;;20.98;10.95;;;2.50;99.90;;;;;;4940322;28;20027;-77
2023/01/24 13:22:36;;;;;;;30.52;12.82;;;2.50;99.90;;;;;;4949415;28;20471;-76
2023/01/24 13:25:21;;;;;;;21.48;12.48;;;2.50;99.90;;;;;;4948229;28;20451;-77
2023/01/24 13:27:55;;;;;;;20.10;11.05;;;2.50;99.90;;;;;;4946911;28;20093;-77
2023/01/24 13:31:08;;;;;;;21.75;11.02;;;2.50;99.90;;;;;;4945848;28;20106;-75
2023/01/24 13:33:56;;;;;;;21.08;10.73;;;2.60;99.90;;;;;;4919019;29;20047;-76
2023/01/24 13:36:29;;;;;;;21.52;10.85;;;2.60;99.90;;;;;;4943342;28;20062;-76
2023/01/24 13:38:56;;;;;;;24.02;11.88;;;2.60;99.90;;;;;;4947558;28;20023;-76
2023/01/24 13:41:25;;;;;;;26.00;11.63;;;2.60;99.90;;;;;;4948802;28;20023;-76
2023/01/24 13:43:58;;;;;;;23.08;10.43;;;2.60;99.90;;;;;;4944803;28;20484;-76